DAL401 KCVG-KPIT
Flight info
| Callsign | DAL401 |
|---|---|
| Flight time | N/A |
| Altitude | 35000 |
| Route | ROCKT4 ROCKT CTW FEWGA7 |
| Aircraft | CRJ2/M-SDFGIRW/S |
Departure
| Time | 2026-05-04 23:31 |
|---|---|
| Airport | Cincinnati Northern Kentucky International Airport (KCVG) |
Arrival
| Time | N/A |
|---|---|
| Airport | Pittsburgh International Airport (KPIT) |
| Time | Latitude | Longitude | Altitude | Speed | Heading |
|---|---|---|---|---|---|
| 2026-05-04 23:07 | 39.04979 | -84.65472 | 882 ft | 0 kts | 0° |
| 2026-05-04 23:24 | 39.04967 | -84.65472 | 882 ft | 3 kts | 0° |
| 2026-05-04 23:24 | 39.04948 | -84.65473 | 882 ft | 3 kts | 0° |
| 2026-05-04 23:24 | 39.04929 | -84.65473 | 881 ft | 3 kts | 0° |
| 2026-05-04 23:25 | 39.04914 | -84.65473 | 880 ft | 0 kts | 0° |
| 2026-05-04 23:25 | 39.04902 | -84.65473 | 880 ft | 0 kts | 0° |
| 2026-05-04 23:26 | 39.04903 | -84.65475 | 880 ft | 0 kts | 329° |
| 2026-05-04 23:26 | 39.04903 | -84.65485 | 880 ft | 0 kts | 274° |
| 2026-05-04 23:28 | 39.04897 | -84.65515 | 879 ft | 9 kts | 238° |
| 2026-05-04 23:28 | 39.04838 | -84.65541 | 877 ft | 8 kts | 180° |
| 2026-05-04 23:28 | 39.04777 | -84.65535 | 876 ft | 9 kts | 172° |
| 2026-05-04 23:29 | 39.04731 | -84.65488 | 877 ft | 8 kts | 124° |
| 2026-05-04 23:29 | 39.04692 | -84.65459 | 878 ft | 6 kts | 176° |
| 2026-05-04 23:29 | 39.04636 | -84.65463 | 880 ft | 12 kts | 203° |
| 2026-05-04 23:29 | 39.04627 | -84.65558 | 877 ft | 7 kts | 269° |
| 2026-05-04 23:30 | 39.04627 | -84.65560 | 877 ft | 0 kts | 269° |
| 2026-05-04 23:30 | 39.04627 | -84.65694 | 873 ft | 50 kts | 270° |
| 2026-05-04 23:30 | 39.04628 | -84.66497 | 877 ft | 128 kts | 269° |
| 2026-05-04 23:30 | 39.04663 | -84.67901 | 1112 ft | 179 kts | 269° |
| 2026-05-04 23:31 | 39.04697 | -84.69488 | 2291 ft | 177 kts | 267° |
| 2026-05-04 23:31 | 39.04708 | -84.71158 | 2908 ft | 199 kts | 263° |
| 2026-05-04 23:31 | 39.04639 | -84.72987 | 3439 ft | 204 kts | 262° |
| 2026-05-04 23:31 | 39.04615 | -84.74867 | 3942 ft | 224 kts | 265° |
| 2026-05-04 23:32 | 39.04645 | -84.76927 | 4852 ft | 235 kts | 265° |
| 2026-05-04 23:32 | 39.04644 | -84.78950 | 6327 ft | 220 kts | 264° |
| 2026-05-04 23:32 | 39.04609 | -84.80920 | 7641 ft | 223 kts | 265° |
| 2026-05-04 23:32 | 39.04606 | -84.82970 | 8698 ft | 237 kts | 268° |
| 2026-05-04 23:33 | 39.05059 | -84.85121 | 9408 ft | 275 kts | 297° |
| 2026-05-04 23:33 | 39.06632 | -84.86827 | 9966 ft | 324 kts | 328° |
| 2026-05-04 23:33 | 39.08958 | -84.87428 | 10739 ft | 350 kts | 350° |
| 2026-05-04 23:33 | 39.11279 | -84.87489 | 12224 ft | 315 kts | 353° |
| 2026-05-04 23:34 | 39.13397 | -84.87460 | 13361 ft | 299 kts | 353° |
| 2026-05-04 23:34 | 39.15515 | -84.87470 | 13834 ft | 310 kts | 349° |
| 2026-05-04 23:34 | 39.17689 | -84.87823 | 14272 ft | 321 kts | 344° |
| 2026-05-04 23:34 | 39.19962 | -84.88255 | 14681 ft | 339 kts | 348° |
| 2026-05-04 23:35 | 39.22388 | -84.88515 | 14903 ft | 360 kts | 349° |
| 2026-05-04 23:35 | 39.24943 | -84.88885 | 15011 ft | 382 kts | 350° |
| 2026-05-04 23:35 | 39.27648 | -84.88335 | 15407 ft | 408 kts | 16° |
| 2026-05-04 23:35 | 39.30282 | -84.86888 | 15955 ft | 411 kts | 13° |
| 2026-05-04 23:36 | 39.33087 | -84.86378 | 16472 ft | 409 kts | 2° |
| 2026-05-04 23:36 | 39.35895 | -84.85869 | 17490 ft | 401 kts | 4° |
| 2026-05-04 23:36 | 39.37324 | -84.85603 | 18805 ft | 0 kts | 2° |